createdAt,value
2023-04-15T00:04:51.464Z,81.58
2023-04-15T00:09:55.242Z,82.11
2023-04-15T00:14:57.169Z,82.21
2023-04-15T00:19:59.964Z,83.61
2023-04-15T00:25:02.153Z,83.01
2023-04-15T00:30:04.219Z,83.14
2023-04-15T00:35:06.196Z,83.54
2023-04-15T00:40:17.246Z,84.23
2023-04-15T00:45:19.261Z,84.61
2023-04-15T00:50:20.814Z,85.09
2023-04-15T00:55:23.107Z,85.65
2023-04-15T01:00:24.887Z,84.67
2023-04-15T01:05:27.105Z,84.83
2023-04-15T01:10:28.719Z,85.59
2023-04-15T01:15:31.352Z,85.20
2023-04-15T01:20:34.553Z,85.86
2023-04-15T01:25:37.112Z,86.48
2023-04-15T01:30:38.697Z,86.13
2023-04-15T01:35:40.309Z,86.35
2023-04-15T01:40:41.817Z,86.79
2023-04-15T01:45:43.355Z,86.67
2023-04-15T01:50:45.775Z,87.06
2023-04-15T01:55:47.439Z,87.31
2023-04-15T02:00:49.716Z,87.13
2023-04-15T02:05:51.445Z,88.48
2023-04-15T02:10:53.027Z,87.93
2023-04-15T02:15:55.684Z,89.14
2023-04-15T02:20:58.688Z,88.88
2023-04-15T02:26:00.477Z,89.45
2023-04-15T02:31:09.596Z,89.04
2023-04-15T02:36:12.452Z,90.39
2023-04-15T02:41:14.340Z,90.48
2023-04-15T02:46:16.906Z,90.34
2023-04-15T02:51:21.434Z,91.13
2023-04-15T02:56:23.603Z,92.09
2023-04-15T03:01:26.178Z,91.41
2023-04-15T03:06:27.784Z,92.91
2023-04-15T03:11:29.839Z,92.11
2023-04-15T03:16:31.543Z,92.01
2023-04-15T03:21:33.474Z,93.32
2023-04-15T03:26:35.154Z,93.43
2023-04-15T03:31:43.611Z,93.59
2023-04-15T03:36:46.869Z,93.46
2023-04-15T03:41:48.428Z,93.97
2023-04-15T03:46:50.146Z,94.14
2023-04-15T03:51:54.300Z,94.67
2023-04-15T03:56:56.832Z,94.98
2023-04-15T04:01:58.597Z,95.53
2023-04-15T04:07:00.166Z,94.94
2023-04-15T04:12:02.669Z,95.24
2023-04-15T04:17:04.320Z,95.46
2023-04-15T04:22:06.494Z,95.55
2023-04-15T04:27:08.130Z,96.03
2023-04-15T04:32:09.972Z,96.31
2023-04-15T04:37:11.883Z,96.93
2023-04-15T04:42:13.423Z,96.47
2023-04-15T04:47:14.997Z,96.30
2023-04-15T04:52:16.669Z,96.99
2023-04-15T04:57:18.236Z,96.91
2023-04-15T05:02:19.872Z,98.06
2023-04-15T05:07:22.165Z,98.25
2023-04-15T05:12:23.762Z,99.08
2023-04-15T05:17:25.305Z,98.20
2023-04-15T05:22:26.959Z,98.64
2023-04-15T05:27:28.508Z,100.00
2023-04-15T05:32:30.045Z,100.00
2023-04-15T05:37:31.600Z,100.00
2023-04-15T05:42:33.233Z,100.00
2023-04-15T05:47:38.336Z,100.00
2023-04-15T05:52:39.869Z,100.00
2023-04-15T05:57:41.461Z,100.00
2023-04-15T06:02:43.447Z,100.00
2023-04-15T06:07:47.252Z,100.00
2023-04-15T06:12:50.007Z,100.00
2023-04-15T06:17:51.645Z,100.00
2023-04-15T06:22:53.420Z,98.25
2023-04-15T06:27:54.937Z,97.20
2023-04-15T06:32:56.563Z,95.64
2023-04-15T06:37:58.100Z,93.33
2023-04-15T06:42:59.677Z,90.99
2023-04-15T06:48:01.477Z,88.91
2023-04-15T06:53:03.150Z,87.17
2023-04-15T06:58:04.687Z,84.43
2023-04-15T07:03:06.317Z,82.80
2023-04-15T07:08:07.893Z,82.24
2023-04-15T07:13:09.480Z,82.39
2023-04-15T07:18:11.245Z,81.68
2023-04-15T07:23:12.758Z,79.51
2023-04-15T07:28:14.265Z,78.71
2023-04-15T07:33:15.885Z,77.95
2023-04-15T07:38:17.516Z,77.04
2023-04-15T07:43:20.672Z,76.28
2023-04-15T07:48:22.211Z,75.44
2023-04-15T07:53:24.024Z,74.58
2023-04-15T07:58:25.761Z,73.27
2023-04-15T08:03:27.703Z,72.87
2023-04-15T08:08:29.355Z,71.19
2023-04-15T08:13:31.062Z,71.27
2023-04-15T08:18:32.571Z,71.06
2023-04-15T08:23:34.645Z,70.74
2023-04-15T08:28:38.559Z,69.77
2023-04-15T08:33:40.124Z,68.28
2023-04-15T08:38:41.849Z,67.03
2023-04-15T08:43:54.825Z,66.42
2023-04-15T08:48:57.678Z,65.79
2023-04-15T08:54:00.148Z,65.51
2023-04-15T08:59:02.543Z,62.80
2023-04-15T09:04:08.165Z,61.71
2023-04-15T09:09:09.921Z,62.69
2023-04-15T09:14:11.973Z,62.23
2023-04-15T09:19:24.198Z,60.56
2023-04-15T09:24:33.631Z,59.48
2023-04-15T09:29:35.279Z,58.30
2023-04-15T09:34:37.768Z,56.70
2023-04-15T09:39:50.550Z,55.39
2023-04-15T09:44:55.434Z,54.45
2023-04-15T09:49:58.480Z,54.84
2023-04-15T09:55:00.960Z,54.05
2023-04-15T10:00:04.332Z,51.97
2023-04-15T10:05:11.298Z,50.43
2023-04-15T10:10:13.544Z,51.58
2023-04-15T10:15:17.523Z,51.37
2023-04-15T10:20:19.760Z,50.66
2023-04-15T10:25:22.120Z,50.38
2023-04-15T10:30:26.614Z,50.30
2023-04-15T10:35:30.726Z,50.14
2023-04-15T10:40:33.478Z,49.97
2023-04-15T10:45:37.208Z,50.90
2023-04-15T10:50:39.456Z,49.93
2023-04-15T10:55:41.051Z,46.88
2023-04-15T11:00:52.386Z,49.96
2023-04-15T11:05:54.245Z,50.10
2023-04-15T11:10:55.881Z,50.71
2023-04-15T11:15:58.579Z,49.52
2023-04-15T11:21:08.356Z,48.10
2023-04-15T11:26:12.212Z,47.56
2023-04-15T11:31:16.397Z,47.45
2023-04-15T11:36:18.045Z,46.96
2023-04-15T11:41:23.469Z,48.94
2023-04-15T11:46:31.951Z,48.49
2023-04-15T11:51:35.322Z,48.31
2023-04-15T11:56:36.854Z,48.10
2023-04-15T12:01:46.753Z,48.00
2023-04-15T12:06:48.913Z,46.23
2023-04-15T12:11:53.033Z,47.78
2023-04-15T12:16:58.640Z,46.74
2023-04-15T12:22:11.850Z,46.68
2023-04-15T12:27:14.924Z,45.90
2023-04-15T12:32:19.767Z,45.77
2023-04-15T12:37:21.715Z,47.09
2023-04-15T12:42:23.227Z,43.23
2023-04-15T12:47:24.799Z,45.25
2023-04-15T12:52:26.363Z,42.67
2023-04-15T12:57:27.959Z,42.09
2023-04-15T13:02:29.561Z,42.61
2023-04-15T13:07:31.578Z,42.14
2023-04-15T13:12:36.406Z,41.10
2023-04-15T13:17:38.582Z,41.05
2023-04-15T13:22:40.595Z,41.25
2023-04-15T13:27:42.613Z,41.26
2023-04-15T13:32:44.333Z,41.97
2023-04-15T13:37:46.101Z,42.92
2023-04-15T13:42:47.603Z,42.90
2023-04-15T13:47:49.214Z,43.90
2023-04-15T13:52:50.858Z,43.25
2023-04-15T13:57:52.506Z,43.67
2023-04-15T14:02:54.153Z,44.94
2023-04-15T14:07:55.903Z,45.96
2023-04-15T14:12:57.451Z,47.58
2023-04-15T14:17:59.061Z,48.37
2023-04-15T14:23:00.862Z,49.44
2023-04-15T14:28:03.317Z,49.90
2023-04-15T14:33:04.984Z,50.04
2023-04-15T14:38:10.410Z,50.32
2023-04-15T14:43:11.985Z,50.83
2023-04-15T14:48:13.687Z,50.71
2023-04-15T14:53:15.376Z,50.13
2023-04-15T14:58:16.885Z,50.02
2023-04-15T15:03:18.724Z,49.73
2023-04-15T15:08:20.831Z,49.73
2023-04-15T15:13:22.398Z,49.75
2023-04-15T15:18:25.546Z,48.09
2023-04-15T15:23:27.238Z,48.81
2023-04-15T15:28:28.779Z,48.64
2023-04-15T15:33:30.483Z,48.49
2023-04-15T15:38:33.796Z,46.69
2023-04-15T15:43:35.536Z,46.00
2023-04-15T15:48:37.123Z,47.04
2023-04-15T15:53:38.622Z,47.26
2023-04-15T15:58:40.235Z,47.20
2023-04-15T16:03:41.956Z,47.65
2023-04-15T16:08:43.633Z,48.08
2023-04-15T16:13:45.147Z,49.05
2023-04-15T16:18:46.646Z,49.85
2023-04-15T16:23:48.155Z,51.55
2023-04-15T16:28:49.821Z,55.71
2023-04-15T16:33:51.333Z,58.88
2023-04-15T16:38:53.231Z,61.73
2023-04-15T16:43:56.749Z,64.64
2023-04-15T16:48:58.368Z,65.86
2023-04-15T16:53:59.923Z,68.64
2023-04-15T16:59:01.418Z,69.51
2023-04-15T17:04:03.436Z,75.96
2023-04-15T17:09:05.491Z,81.36
2023-04-15T17:14:07.601Z,84.12
2023-04-15T17:19:09.127Z,89.10
2023-04-15T17:24:10.960Z,93.69
2023-04-15T17:29:13.374Z,95.67
2023-04-15T17:34:16.003Z,98.32
2023-04-15T17:39:17.730Z,99.99
2023-04-15T17:44:19.360Z,100.00
2023-04-15T17:49:20.908Z,100.00
2023-04-15T17:54:22.667Z,100.00
2023-04-15T17:59:27.630Z,100.00
2023-04-15T18:04:29.267Z,100.00
2023-04-15T18:09:31.223Z,100.00
2023-04-15T18:14:35.032Z,100.00
2023-04-15T18:19:36.764Z,100.00
2023-04-15T18:24:38.580Z,100.00
2023-04-15T18:29:40.170Z,100.00
2023-04-15T18:34:42.818Z,100.00
2023-04-15T18:39:44.399Z,100.00
2023-04-15T18:44:45.907Z,100.00
2023-04-15T18:49:47.510Z,100.00
2023-04-15T18:54:49.069Z,100.00
2023-04-15T18:59:50.618Z,100.00
2023-04-15T19:04:52.158Z,100.00
2023-04-15T19:09:53.733Z,100.00
2023-04-15T19:14:55.461Z,100.00
2023-04-15T19:19:57.087Z,100.00
2023-04-15T19:24:58.705Z,100.00
2023-04-15T19:30:00.214Z,100.00
2023-04-15T19:35:01.957Z,100.00
2023-04-15T19:40:03.878Z,100.00
2023-04-15T19:45:05.958Z,100.00
2023-04-15T19:50:07.866Z,100.00
2023-04-15T19:55:09.473Z,100.00
2023-04-15T20:00:11.601Z,100.00
2023-04-15T20:05:13.870Z,100.00
2023-04-15T20:10:15.457Z,100.00
2023-04-15T20:15:17.257Z,100.00
2023-04-15T20:20:18.913Z,100.00
2023-04-15T20:25:20.475Z,100.00
2023-04-15T20:30:22.107Z,100.00
2023-04-15T20:35:24.983Z,100.00
2023-04-15T20:40:26.614Z,100.00
2023-04-15T20:45:28.160Z,100.00
2023-04-15T20:50:29.814Z,100.00
2023-04-15T20:55:31.303Z,100.00
2023-04-15T21:00:33.298Z,100.00
2023-04-15T21:05:34.864Z,100.00
2023-04-15T21:10:36.819Z,100.00
2023-04-15T21:15:39.215Z,100.00
2023-04-15T21:20:40.703Z,100.00
2023-04-15T21:25:43.344Z,100.00
2023-04-15T21:30:45.845Z,100.00
2023-04-15T21:35:47.513Z,100.00
2023-04-15T21:40:52.367Z,100.00
2023-04-15T21:46:23.174Z,100.00
2023-04-15T21:51:15.758Z,100.00
2023-04-15T21:56:17.316Z,100.00
2023-04-15T22:01:18.889Z,100.00
2023-04-15T22:06:20.506Z,100.00
2023-04-15T22:11:28.754Z,100.00
2023-04-15T22:16:30.542Z,100.00
2023-04-15T22:21:32.437Z,100.00
2023-04-15T22:26:33.998Z,100.00
2023-04-15T22:31:35.806Z,100.00
2023-04-15T22:36:37.342Z,100.00
2023-04-15T22:41:38.914Z,100.00
2023-04-15T22:46:40.718Z,100.00
2023-04-15T22:51:42.309Z,100.00
2023-04-15T22:56:43.884Z,100.00
2023-04-15T23:01:45.580Z,100.00
2023-04-15T23:06:47.497Z,100.00
2023-04-15T23:11:49.413Z,100.00
2023-04-15T23:16:51.062Z,100.00
2023-04-15T23:21:54.088Z,100.00
2023-04-15T23:26:57.196Z,100.00
2023-04-15T23:31:59.128Z,100.00
2023-04-15T23:37:00.930Z,100.00
2023-04-15T23:42:03.404Z,100.00
2023-04-15T23:47:05.202Z,100.00
2023-04-15T23:52:07.237Z,100.00
2023-04-15T23:57:08.799Z,100.00
